createdAt,value
2022-09-15T00:02:24.613Z,13.50
2022-09-15T00:04:51.190Z,9.70
2022-09-15T00:07:17.681Z,13.90
2022-09-15T00:09:44.109Z,15.73
2022-09-15T00:12:10.590Z,10.25
2022-09-15T00:14:37.047Z,11.52
2022-09-15T00:17:03.669Z,14.88
2022-09-15T00:19:30.128Z,10.75
2022-09-15T00:21:56.571Z,14.82
2022-09-15T00:24:23.018Z,13.20
2022-09-15T00:26:49.486Z,11.82
2022-09-15T00:29:16.081Z,11.10
2022-09-15T00:31:42.499Z,9.52
2022-09-15T00:34:12.089Z,10.18
2022-09-15T00:36:38.524Z,10.40
2022-09-15T00:39:05.398Z,12.18
2022-09-15T00:41:31.919Z,10.65
2022-09-15T00:44:24.395Z,9.90
2022-09-15T00:47:09.656Z,8.77
2022-09-15T00:49:41.557Z,9.88
2022-09-15T00:52:54.690Z,10.27
2022-09-15T00:55:27.316Z,8.65
2022-09-15T00:57:57.161Z,7.40
2022-09-15T01:00:26.482Z,9.38
2022-09-15T01:02:53.345Z,10.30
2022-09-15T01:05:23.728Z,10.00
2022-09-15T01:07:56.065Z,10.88
2022-09-15T01:10:27.490Z,7.72
2022-09-15T01:12:57.081Z,7.60
2022-09-15T01:15:28.626Z,11.68
2022-09-15T01:18:34.816Z,7.80
2022-09-15T01:21:08.961Z,7.07
2022-09-15T01:24:12.098Z,11.90
2022-09-15T01:26:52.469Z,8.63
2022-09-15T01:29:37.603Z,7.45
2022-09-15T01:32:31.377Z,10.45
2022-09-15T01:35:08.428Z,8.70
2022-09-15T01:37:39.648Z,7.20
2022-09-15T01:40:07.167Z,7.50
2022-09-15T01:42:34.274Z,7.68
2022-09-15T01:45:08.934Z,6.55
2022-09-15T01:47:36.330Z,7.80
2022-09-15T01:50:09.995Z,10.90
2022-09-15T01:52:37.362Z,12.02
2022-09-15T01:55:09.864Z,8.43
2022-09-15T01:57:36.329Z,8.55
2022-09-15T02:00:03.926Z,7.65
2022-09-15T02:02:36.206Z,7.55
2022-09-15T02:05:08.554Z,7.07
2022-09-15T02:07:47.750Z,8.88
2022-09-15T02:10:30.865Z,11.68
2022-09-15T02:12:59.890Z,8.05
2022-09-15T02:15:33.300Z,7.80
2022-09-15T02:18:03.090Z,10.20
2022-09-15T02:20:53.016Z,6.70
2022-09-15T02:23:32.792Z,7.45
2022-09-15T02:26:06.668Z,7.10
2022-09-15T02:28:36.263Z,8.20
2022-09-15T02:31:04.178Z,9.02
2022-09-15T02:33:35.713Z,7.72
2022-09-15T02:36:03.326Z,6.45
2022-09-15T02:38:35.157Z,8.93
2022-09-15T02:41:02.275Z,7.05
2022-09-15T02:43:29.568Z,11.32
2022-09-15T02:45:56.084Z,11.38
2022-09-15T02:48:22.705Z,7.25
2022-09-15T02:50:49.165Z,8.38
2022-09-15T02:53:15.599Z,10.25
2022-09-15T02:55:42.223Z,9.63
2022-09-15T02:58:08.675Z,9.50
2022-09-15T03:00:35.249Z,10.38
2022-09-15T03:03:01.766Z,8.38
2022-09-15T03:05:29.952Z,7.35
2022-09-15T03:07:56.963Z,9.70
2022-09-15T03:10:24.640Z,10.20
2022-09-15T03:12:53.139Z,7.55
2022-09-15T03:15:22.210Z,11.98
2022-09-15T03:17:48.811Z,11.13
2022-09-15T03:20:19.960Z,7.38
2022-09-15T03:22:46.959Z,8.27
2022-09-15T03:25:13.610Z,11.85
2022-09-15T03:27:40.212Z,9.57
2022-09-15T03:30:07.733Z,9.57
2022-09-15T03:32:34.233Z,7.32
2022-09-15T03:35:00.770Z,8.07
2022-09-15T03:37:27.589Z,7.82
2022-09-15T03:39:54.174Z,7.38
2022-09-15T03:42:21.380Z,9.02
2022-09-15T03:44:47.966Z,8.43
2022-09-15T03:47:14.553Z,8.60
2022-09-15T03:49:40.980Z,8.30
2022-09-15T03:52:07.690Z,12.68
2022-09-15T03:54:35.410Z,10.05
2022-09-15T03:57:01.941Z,10.48
2022-09-15T03:59:28.359Z,9.88
2022-09-15T04:01:54.828Z,11.15
2022-09-15T04:04:21.317Z,10.52
2022-09-15T04:06:47.805Z,8.90
2022-09-15T04:09:14.493Z,6.90
2022-09-15T04:11:40.933Z,10.18
2022-09-15T04:14:07.389Z,10.23
2022-09-15T04:16:33.997Z,13.30
2022-09-15T04:19:01.471Z,8.13
2022-09-15T04:21:27.906Z,8.20
2022-09-15T04:23:54.430Z,9.88
2022-09-15T04:26:32.970Z,11.63
2022-09-15T04:29:03.919Z,11.77
2022-09-15T04:31:31.977Z,8.85
2022-09-15T04:33:59.278Z,8.60
2022-09-15T04:36:28.186Z,7.72
2022-09-15T04:38:55.284Z,12.95
2022-09-15T04:41:22.049Z,9.25
2022-09-15T04:43:48.599Z,10.48
2022-09-15T04:46:15.488Z,6.32
2022-09-15T04:48:43.132Z,10.27
2022-09-15T04:51:20.763Z,10.05
2022-09-15T04:53:47.340Z,6.65
2022-09-15T04:56:18.866Z,9.20
2022-09-15T04:58:48.185Z,10.18
2022-09-15T05:03:49.087Z,8.77
2022-09-15T05:06:18.924Z,9.88
2022-09-15T05:08:53.313Z,9.02
2022-09-15T05:11:20.046Z,11.45
2022-09-15T05:13:46.964Z,10.98
2022-09-15T05:16:14.610Z,11.10
2022-09-15T05:18:42.762Z,11.43
2022-09-15T05:21:10.813Z,10.88
2022-09-15T05:23:37.703Z,9.73
2022-09-15T05:26:06.646Z,10.20
2022-09-15T05:28:34.773Z,10.95
2022-09-15T05:31:01.505Z,9.07
2022-09-15T05:33:28.237Z,11.82
2022-09-15T05:35:59.380Z,7.93
2022-09-15T05:38:27.876Z,10.10
2022-09-15T05:40:54.428Z,15.50
2022-09-15T05:43:21.327Z,11.95
2022-09-15T05:45:54.876Z,10.23
2022-09-15T05:48:21.676Z,8.77
2022-09-15T05:50:49.900Z,10.82
2022-09-15T05:53:16.341Z,9.18
2022-09-15T05:55:42.902Z,10.43
2022-09-15T05:58:09.777Z,6.80
2022-09-15T06:00:36.660Z,9.98
2022-09-15T06:03:04.167Z,11.75
2022-09-15T06:05:30.834Z,11.82
2022-09-15T06:07:57.269Z,10.75
2022-09-15T06:10:24.977Z,9.88
2022-09-15T06:12:55.054Z,9.73
2022-09-15T06:15:22.759Z,8.18
2022-09-15T06:17:49.460Z,9.45
2022-09-15T06:20:16.048Z,8.75
2022-09-15T06:22:42.529Z,10.25
2022-09-15T06:25:09.085Z,10.52
2022-09-15T06:27:35.527Z,10.65
2022-09-15T06:30:01.944Z,12.98
2022-09-15T06:32:28.401Z,9.88
2022-09-15T06:34:54.851Z,10.68
2022-09-15T06:37:21.479Z,12.80
2022-09-15T06:39:48.077Z,7.15
2022-09-15T06:42:14.552Z,11.63
2022-09-15T06:44:41.498Z,10.77
2022-09-15T06:47:08.029Z,9.95
2022-09-15T06:49:34.539Z,10.15
2022-09-15T06:52:02.460Z,10.75
2022-09-15T06:54:28.941Z,8.77
2022-09-15T06:56:55.431Z,9.10
2022-09-15T06:59:23.875Z,10.75
2022-09-15T07:01:54.640Z,9.02
2022-09-15T07:04:23.850Z,12.93
2022-09-15T07:09:19.802Z,8.75
2022-09-15T07:11:46.276Z,6.35
2022-09-15T07:14:12.778Z,11.23
2022-09-15T07:16:39.363Z,7.32
2022-09-15T07:19:06.129Z,7.70
2022-09-15T07:21:33.539Z,7.22
2022-09-15T07:24:02.637Z,5.28
2022-09-15T07:26:33.799Z,6.13
2022-09-15T07:29:02.799Z,8.35
2022-09-15T07:31:32.152Z,7.07
2022-09-15T07:33:59.825Z,8.55
2022-09-15T07:36:26.733Z,6.45
2022-09-15T07:38:53.479Z,6.53
2022-09-15T07:41:22.263Z,8.15
2022-09-15T07:43:50.883Z,7.30
2022-09-15T07:46:17.984Z,6.88
2022-09-15T07:48:49.247Z,5.88
2022-09-15T07:51:16.546Z,6.60
2022-09-15T07:53:44.020Z,17.45
2022-09-15T07:56:10.542Z,7.28
2022-09-15T07:58:37.004Z,7.68
2022-09-15T08:01:05.307Z,8.93
2022-09-15T08:03:32.358Z,8.07
2022-09-15T08:06:00.295Z,11.25
2022-09-15T08:08:27.109Z,9.10
2022-09-15T08:10:53.887Z,7.57
2022-09-15T08:13:20.647Z,6.35
2022-09-15T08:15:49.149Z,10.88
2022-09-15T08:18:15.852Z,4.68
2022-09-15T08:20:43.085Z,6.03
2022-09-15T08:23:11.012Z,7.65
2022-09-15T08:25:40.544Z,6.32
2022-09-15T08:28:07.018Z,8.98
2022-09-15T08:30:33.561Z,6.95
2022-09-15T08:33:00.001Z,5.13
2022-09-15T08:35:26.509Z,5.85
2022-09-15T08:37:56.772Z,7.40
2022-09-15T08:40:28.292Z,7.38
2022-09-15T08:42:57.797Z,9.98
2022-09-15T08:45:30.758Z,10.63
2022-09-15T08:48:00.141Z,9.52
2022-09-15T08:50:33.671Z,7.15
2022-09-15T08:53:03.155Z,5.22
2022-09-15T08:55:41.551Z,8.27
2022-09-15T08:58:14.682Z,7.47
2022-09-15T09:00:42.144Z,7.38
2022-09-15T09:03:36.676Z,8.18
2022-09-15T09:06:21.874Z,6.38
2022-09-15T09:08:56.029Z,8.32
2022-09-15T09:11:35.536Z,9.05
2022-09-15T09:14:18.975Z,8.15
2022-09-15T09:17:00.097Z,10.02
2022-09-15T09:19:47.908Z,5.63
2022-09-15T09:22:17.575Z,8.57
2022-09-15T09:24:46.294Z,3.63
2022-09-15T09:27:29.028Z,4.15
2022-09-15T09:30:12.334Z,4.10
2022-09-15T09:32:45.017Z,7.32
2022-09-15T09:35:21.452Z,4.97
2022-09-15T09:37:49.455Z,6.97
2022-09-15T09:40:16.370Z,5.05
2022-09-15T09:42:43.624Z,8.65
2022-09-15T09:45:13.977Z,7.00
2022-09-15T09:47:41.342Z,5.50
2022-09-15T09:50:39.695Z,6.63
2022-09-15T09:53:28.715Z,7.20
2022-09-15T09:56:11.493Z,4.93
2022-09-15T09:58:38.514Z,8.77
2022-09-15T10:01:14.087Z,5.78
2022-09-15T10:03:41.871Z,7.40
2022-09-15T10:06:22.097Z,3.88
2022-09-15T10:08:57.995Z,4.43
2022-09-15T10:11:41.948Z,3.22
2022-09-15T10:14:19.843Z,5.78
2022-09-15T10:17:06.553Z,4.78
2022-09-15T10:19:44.132Z,5.13
2022-09-15T10:22:21.201Z,4.68
2022-09-15T10:24:50.031Z,7.22
2022-09-15T10:27:26.144Z,4.13
2022-09-15T10:29:53.298Z,5.68
2022-09-15T10:32:29.717Z,2.92
2022-09-15T10:35:06.557Z,3.70
2022-09-15T10:37:48.135Z,5.35
2022-09-15T10:40:26.039Z,6.10
2022-09-15T10:42:54.072Z,4.20
2022-09-15T10:45:43.580Z,4.25
2022-09-15T10:48:19.062Z,4.65
2022-09-15T10:53:39.446Z,4.40
2022-09-15T10:56:44.119Z,3.88
2022-09-15T10:59:45.791Z,5.93
2022-09-15T11:02:25.420Z,7.50
2022-09-15T11:04:57.964Z,10.07
2022-09-15T11:07:34.413Z,12.82
2022-09-15T11:10:23.563Z,6.05
2022-09-15T11:12:59.506Z,8.88
2022-09-15T11:15:37.290Z,7.82
2022-09-15T11:18:18.170Z,7.43
2022-09-15T11:21:09.609Z,5.47
2022-09-15T11:23:44.212Z,5.93
2022-09-15T11:26:16.019Z,5.07
2022-09-15T11:28:51.143Z,4.18
2022-09-15T11:31:41.428Z,2.97
2022-09-15T11:34:23.805Z,3.53
2022-09-15T11:37:11.050Z,4.97
2022-09-15T11:39:45.063Z,9.18
2022-09-15T11:42:20.658Z,3.58
2022-09-15T11:44:47.583Z,4.13
2022-09-15T11:47:16.494Z,5.32
2022-09-15T11:49:47.927Z,3.40
2022-09-15T11:52:22.420Z,5.25
2022-09-15T11:54:55.346Z,4.22
2022-09-15T11:57:28.418Z,4.93
2022-09-15T12:00:00.927Z,8.23
2022-09-15T12:02:52.770Z,5.85
2022-09-15T12:05:26.331Z,5.35
2022-09-15T12:08:10.459Z,2.55
2022-09-15T12:10:43.522Z,4.80
2022-09-15T12:13:17.578Z,4.78
2022-09-15T12:15:45.511Z,7.13
2022-09-15T12:18:53.416Z,5.13
2022-09-15T12:21:34.016Z,5.32
2022-09-15T12:24:11.194Z,4.60
2022-09-15T12:26:38.250Z,4.95
2022-09-15T12:29:27.285Z,5.53
2022-09-15T12:32:19.694Z,4.38
2022-09-15T12:35:01.354Z,4.40
2022-09-15T12:37:37.287Z,3.97
2022-09-15T12:40:06.552Z,5.32
2022-09-15T12:42:35.051Z,4.43
2022-09-15T12:45:07.956Z,4.97
2022-09-15T12:47:38.149Z,7.47
2022-09-15T12:50:16.631Z,5.03
2022-09-15T12:52:55.108Z,8.55
2022-09-15T12:55:24.833Z,7.35
2022-09-15T12:57:53.461Z,5.28
2022-09-15T13:00:23.285Z,4.82
2022-09-15T13:02:51.661Z,4.55
2022-09-15T13:05:40.168Z,6.18
2022-09-15T13:08:17.063Z,7.97
2022-09-15T13:10:59.820Z,6.53
2022-09-15T13:13:34.767Z,15.68
2022-09-15T13:16:02.372Z,7.35
2022-09-15T13:18:30.878Z,8.48
2022-09-15T13:21:00.550Z,3.72
2022-09-15T13:23:29.697Z,9.57
2022-09-15T13:25:57.637Z,3.80
2022-09-15T13:28:24.985Z,8.68
2022-09-15T13:31:13.441Z,3.83
2022-09-15T13:40:05.788Z,6.53
2022-09-15T13:42:53.638Z,3.88
2022-09-15T13:45:38.852Z,4.18
2022-09-15T13:48:19.727Z,4.10
2022-09-15T13:51:02.608Z,6.25
2022-09-15T13:53:37.922Z,6.25
2022-09-15T14:01:23.468Z,6.35
2022-09-15T14:03:58.385Z,4.95
2022-09-15T14:06:33.471Z,5.22
2022-09-15T14:09:04.537Z,4.72
2022-09-15T14:11:33.099Z,8.77
2022-09-15T14:14:00.830Z,8.15
2022-09-15T14:16:27.824Z,6.60
2022-09-15T14:18:57.764Z,4.15
2022-09-15T14:21:32.881Z,4.47
2022-09-15T14:24:22.156Z,4.35
2022-09-15T14:26:48.846Z,5.35
2022-09-15T14:29:19.584Z,4.38
2022-09-15T14:31:47.431Z,3.30
2022-09-15T14:34:18.607Z,6.13
2022-09-15T14:36:45.938Z,3.28
2022-09-15T14:39:12.438Z,5.07
2022-09-15T14:41:40.113Z,6.90
2022-09-15T14:45:54.865Z,5.38
2022-09-15T14:47:26.338Z,4.68
2022-09-15T14:50:11.165Z,4.80
2022-09-15T14:52:40.730Z,5.70
2022-09-15T14:55:24.062Z,7.40
2022-09-15T14:58:03.906Z,6.18
2022-09-15T15:00:35.278Z,4.47
2022-09-15T15:03:16.175Z,8.57
2022-09-15T15:06:02.846Z,8.02
2022-09-15T15:08:40.332Z,5.13
2022-09-15T15:11:07.886Z,7.50
2022-09-15T15:13:35.004Z,5.85
2022-09-15T15:16:06.462Z,3.95
2022-09-15T15:18:38.504Z,5.53
2022-09-15T15:21:06.900Z,3.40
2022-09-15T15:23:33.487Z,4.85
2022-09-15T15:26:27.192Z,8.20
2022-09-15T15:28:53.712Z,2.22
2022-09-15T15:31:25.174Z,4.70
2022-09-15T15:34:06.857Z,4.60
2022-09-15T15:36:35.053Z,4.72
2022-09-15T15:39:05.506Z,4.78
2022-09-15T15:41:35.923Z,4.53
2022-09-15T15:44:08.209Z,3.53
2022-09-15T15:47:01.674Z,5.07
2022-09-15T15:49:32.750Z,3.90
2022-09-15T15:52:00.748Z,3.55
2022-09-15T15:54:27.552Z,2.40
2022-09-15T15:56:54.523Z,6.80
2022-09-15T15:59:24.788Z,4.35
2022-09-15T16:01:54.197Z,4.82
2022-09-15T16:04:20.687Z,4.97
2022-09-15T16:06:47.619Z,2.47
2022-09-15T16:09:14.767Z,3.25
2022-09-15T16:11:42.670Z,3.17
2022-09-15T16:14:12.105Z,6.50
2022-09-15T16:16:38.658Z,3.85
2022-09-15T16:19:05.154Z,4.30
2022-09-15T16:21:42.239Z,6.70
2022-09-15T16:24:13.638Z,5.78
2022-09-15T16:26:40.369Z,3.88
2022-09-15T16:29:06.857Z,5.47
2022-09-15T16:31:33.670Z,4.15
2022-09-15T16:34:00.260Z,3.08
2022-09-15T16:36:27.134Z,4.88
2022-09-15T16:38:53.819Z,5.07
2022-09-15T16:41:28.421Z,3.40
2022-09-15T16:43:57.788Z,3.95
2022-09-15T16:46:24.327Z,4.65
2022-09-15T16:48:50.920Z,3.70
2022-09-15T16:51:34.995Z,3.70
2022-09-15T16:54:01.537Z,6.65
2022-09-15T16:56:28.125Z,3.08
2022-09-15T16:59:00.168Z,5.90
2022-09-15T17:01:27.659Z,4.20
2022-09-15T17:03:54.230Z,6.22
2022-09-15T17:06:22.008Z,4.65
2022-09-15T17:08:48.782Z,3.92
2022-09-15T17:11:20.465Z,4.50
2022-09-15T17:13:47.396Z,2.38
2022-09-15T17:16:17.515Z,4.72
2022-09-15T17:18:44.113Z,3.17
2022-09-15T17:21:11.750Z,4.15
2022-09-15T17:23:39.871Z,3.25
2022-09-15T17:26:11.444Z,3.58
2022-09-15T17:28:38.056Z,2.58
2022-09-15T17:31:09.811Z,3.20
2022-09-15T17:33:36.361Z,5.57
2022-09-15T17:36:02.920Z,4.05
2022-09-15T17:38:29.402Z,3.90
2022-09-15T17:40:55.954Z,5.32
2022-09-15T17:43:25.193Z,4.28
2022-09-15T17:45:52.017Z,6.28
2022-09-15T17:48:18.731Z,4.13
2022-09-15T17:50:46.229Z,10.85
2022-09-15T17:53:23.420Z,2.42
2022-09-15T17:55:50.825Z,4.07
2022-09-15T17:58:17.765Z,3.47
2022-09-15T18:00:44.897Z,4.55
2022-09-15T18:03:21.929Z,4.25
2022-09-15T18:05:48.425Z,2.67
2022-09-15T18:08:16.402Z,7.28
2022-09-15T18:10:43.380Z,3.53
2022-09-15T18:13:14.667Z,3.78
2022-09-15T18:15:42.808Z,3.80
2022-09-15T18:18:13.541Z,4.45
2022-09-15T18:20:40.349Z,4.25
2022-09-15T18:23:06.904Z,3.35
2022-09-15T18:25:36.531Z,5.28
2022-09-15T18:28:03.948Z,5.00
2022-09-15T18:30:42.149Z,2.40
2022-09-15T18:33:14.849Z,2.25
2022-09-15T18:35:42.081Z,3.13
2022-09-15T18:38:08.802Z,2.72
2022-09-15T18:40:35.477Z,3.35
2022-09-15T18:43:02.239Z,4.03
2022-09-15T18:45:28.971Z,4.85
2022-09-15T18:47:55.420Z,4.35
2022-09-15T18:50:23.465Z,4.68
2022-09-15T18:52:50.093Z,3.22
2022-09-15T18:55:19.589Z,7.38
2022-09-15T18:57:47.155Z,4.40
2022-09-15T19:00:22.478Z,4.97
2022-09-15T19:02:48.930Z,4.72
2022-09-15T19:05:16.385Z,4.93
2022-09-15T19:07:44.042Z,5.20
2022-09-15T19:10:12.438Z,3.60
2022-09-15T19:12:39.159Z,2.53
2022-09-15T19:15:10.873Z,5.03
2022-09-15T19:17:38.545Z,4.90
2022-09-15T19:20:08.967Z,2.78
2022-09-15T19:22:36.097Z,3.72
2022-09-15T19:25:03.297Z,5.97
2022-09-15T19:27:29.890Z,4.15
2022-09-15T19:29:56.464Z,4.10
2022-09-15T19:32:23.132Z,4.30
2022-09-15T19:34:49.655Z,3.65
2022-09-15T19:37:18.971Z,10.80
2022-09-15T19:39:46.433Z,7.65
2022-09-15T19:42:13.439Z,4.65
2022-09-15T19:44:41.092Z,5.38
2022-09-15T19:47:08.463Z,2.85
2022-09-15T19:49:35.053Z,3.63
2022-09-15T19:52:01.557Z,7.00
2022-09-15T19:54:30.037Z,4.47
2022-09-15T19:56:56.858Z,4.60
2022-09-15T19:59:27.458Z,5.03
2022-09-15T20:01:56.790Z,3.80
2022-09-15T20:04:23.481Z,4.32
2022-09-15T20:06:49.990Z,3.72
2022-09-15T20:09:16.987Z,3.50
2022-09-15T20:11:43.554Z,4.00
2022-09-15T20:14:10.170Z,4.00
2022-09-15T20:16:37.075Z,2.80
2022-09-15T20:19:04.205Z,5.85
2022-09-15T20:21:50.855Z,3.97
2022-09-15T20:24:19.576Z,4.75
2022-09-15T20:26:46.219Z,5.65
2022-09-15T20:29:13.136Z,4.32
2022-09-15T20:31:39.846Z,5.50
2022-09-15T20:34:06.356Z,3.50
2022-09-15T20:36:35.426Z,3.75
2022-09-15T20:39:03.816Z,3.38
2022-09-15T20:41:31.984Z,3.40
2022-09-15T20:43:58.903Z,6.15
2022-09-15T20:46:25.505Z,2.35
2022-09-15T20:48:52.529Z,4.82
2022-09-15T20:51:23.873Z,4.53
2022-09-15T20:53:52.372Z,4.80
2022-09-15T20:56:21.223Z,3.83
2022-09-15T20:58:48.035Z,4.95
2022-09-15T21:01:20.723Z,3.42
2022-09-15T21:03:47.935Z,4.70
2022-09-15T21:06:17.382Z,4.80
2022-09-15T21:08:45.962Z,2.72
2022-09-15T21:11:14.802Z,5.95
2022-09-15T21:13:44.489Z,4.20
2022-09-15T21:16:15.114Z,5.63
2022-09-15T21:18:43.069Z,4.68
2022-09-15T21:21:14.662Z,4.55
2022-09-15T21:23:46.790Z,4.85
2022-09-15T21:26:15.351Z,2.97
2022-09-15T21:28:43.486Z,4.85
2022-09-15T21:31:15.124Z,4.40
2022-09-15T21:33:41.975Z,4.15
2022-09-15T21:36:10.851Z,3.05
2022-09-15T21:38:39.253Z,3.92
2022-09-15T21:41:07.502Z,2.70
2022-09-15T21:43:36.563Z,4.45
2022-09-15T21:46:05.036Z,4.78
2022-09-15T21:48:35.419Z,4.13
2022-09-15T21:51:02.980Z,3.25
2022-09-15T21:53:29.795Z,4.70
2022-09-15T21:56:00.604Z,4.32
2022-09-15T21:58:39.003Z,5.63
2022-09-15T22:01:14.112Z,2.90
2022-09-15T22:03:44.541Z,4.60
2022-09-15T22:06:12.452Z,4.10
2022-09-15T22:08:39.792Z,3.22
2022-09-15T22:11:07.379Z,3.80
2022-09-15T22:13:35.927Z,5.53
2022-09-15T22:16:05.516Z,4.65
2022-09-15T22:18:32.044Z,5.25
2022-09-15T22:21:12.993Z,4.45
2022-09-15T22:23:40.058Z,5.72
2022-09-15T22:26:12.499Z,5.00
2022-09-15T22:28:39.147Z,3.55
2022-09-15T22:31:08.111Z,2.75
2022-09-15T22:33:34.770Z,3.55
2022-09-15T22:36:01.746Z,4.55
2022-09-15T22:38:29.784Z,3.33
2022-09-15T22:40:56.742Z,3.13
2022-09-15T22:43:23.505Z,4.70
2022-09-15T22:45:50.045Z,4.75
2022-09-15T22:48:16.577Z,5.45
2022-09-15T22:50:46.142Z,5.50
2022-09-15T22:53:13.011Z,4.80
2022-09-15T22:55:39.869Z,9.60
2022-09-15T22:58:07.076Z,3.70
2022-09-15T23:00:34.139Z,4.20
2022-09-15T23:03:00.627Z,2.88
2022-09-15T23:05:32.449Z,3.13
2022-09-15T23:07:59.232Z,5.63
2022-09-15T23:10:26.683Z,5.05
2022-09-15T23:12:55.322Z,2.55
2022-09-15T23:15:22.155Z,4.95
2022-09-15T23:17:48.867Z,4.93
2022-09-15T23:20:15.364Z,3.55
2022-09-15T23:22:41.895Z,6.82
2022-09-15T23:25:08.752Z,6.90
2022-09-15T23:27:35.249Z,3.92
2022-09-15T23:30:01.684Z,3.53
2022-09-15T23:32:28.126Z,5.30
2022-09-15T23:34:54.786Z,3.50
2022-09-15T23:37:21.621Z,5.63
2022-09-15T23:39:48.364Z,4.85
2022-09-15T23:42:18.785Z,3.20
2022-09-15T23:44:45.793Z,3.25
2022-09-15T23:47:12.249Z,1.80
2022-09-15T23:49:38.708Z,4.28
2022-09-15T23:52:05.167Z,3.15
2022-09-15T23:54:31.612Z,4.28
2022-09-15T23:56:58.104Z,3.67
2022-09-15T23:59:24.769Z,5.53
